sensor_id;sensor_type;location;lat;lon;timestamp;temperature;humidity
25556;DHT22;13447;57.174;-2.112;2023-06-24T00:00:50;16.90;1.00
25556;DHT22;13447;57.174;-2.112;2023-06-24T00:03:18;16.90;1.00
25556;DHT22;13447;57.174;-2.112;2023-06-24T00:05:45;16.90;1.00
25556;DHT22;13447;57.174;-2.112;2023-06-24T00:08:16;16.80;1.00
25556;DHT22;13447;57.174;-2.112;2023-06-24T00:10:49;16.70;1.00
25556;DHT22;13447;57.174;-2.112;2023-06-24T00:13:17;16.80;1.00
25556;DHT22;13447;57.174;-2.112;2023-06-24T00:15:44;16.80;1.00
25556;DHT22;13447;57.174;-2.112;2023-06-24T00:18:11;16.70;1.00
25556;DHT22;13447;57.174;-2.112;2023-06-24T00:20:38;16.70;1.00
25556;DHT22;13447;57.174;-2.112;2023-06-24T00:23:05;16.70;1.00
25556;DHT22;13447;57.174;-2.112;2023-06-24T00:25:32;16.70;1.00
25556;DHT22;13447;57.174;-2.112;2023-06-24T00:27:59;16.70;1.00
25556;DHT22;13447;57.174;-2.112;2023-06-24T00:30:26;16.70;1.00
25556;DHT22;13447;57.174;-2.112;2023-06-24T00:32:53;16.70;1.00
25556;DHT22;13447;57.174;-2.112;2023-06-24T00:35:20;16.70;1.00
25556;DHT22;13447;57.174;-2.112;2023-06-24T00:37:46;16.70;1.00
25556;DHT22;13447;57.174;-2.112;2023-06-24T00:40:13;16.70;1.00
25556;DHT22;13447;57.174;-2.112;2023-06-24T00:42:44;16.70;1.00
25556;DHT22;13447;57.174;-2.112;2023-06-24T00:45:11;16.70;1.00
25556;DHT22;13447;57.174;-2.112;2023-06-24T00:47:38;16.70;1.00
25556;DHT22;13447;57.174;-2.112;2023-06-24T00:50:06;16.70;1.00
25556;DHT22;13447;57.174;-2.112;2023-06-24T00:52:32;16.80;1.00
25556;DHT22;13447;57.174;-2.112;2023-06-24T00:55:00;16.80;1.00
25556;DHT22;13447;57.174;-2.112;2023-06-24T00:57:29;16.80;1.00
25556;DHT22;13447;57.174;-2.112;2023-06-24T00:59:56;16.80;1.00
25556;DHT22;13447;57.174;-2.112;2023-06-24T01:02:23;16.80;1.00
25556;DHT22;13447;57.174;-2.112;2023-06-24T01:04:54;16.80;1.00
25556;DHT22;13447;57.174;-2.112;2023-06-24T01:07:23;16.80;1.00
25556;DHT22;13447;57.174;-2.112;2023-06-24T01:09:50;16.90;1.00
25556;DHT22;13447;57.174;-2.112;2023-06-24T01:12:17;16.80;1.00
25556;DHT22;13447;57.174;-2.112;2023-06-24T01:14:44;16.90;1.00
25556;DHT22;13447;57.174;-2.112;2023-06-24T01:17:24;16.80;1.00
25556;DHT22;13447;57.174;-2.112;2023-06-24T01:24:59;16.80;1.00
25556;DHT22;13447;57.174;-2.112;2023-06-24T01:32:31;16.80;1.00
25556;DHT22;13447;57.174;-2.112;2023-06-24T01:35:13;16.80;1.00
25556;DHT22;13447;57.174;-2.112;2023-06-24T01:37:44;16.80;1.00
25556;DHT22;13447;57.174;-2.112;2023-06-24T01:43:16;16.70;1.00
25556;DHT22;13447;57.174;-2.112;2023-06-24T01:45:45;16.70;1.00
25556;DHT22;13447;57.174;-2.112;2023-06-24T01:48:14;16.70;1.00
25556;DHT22;13447;57.174;-2.112;2023-06-24T01:50:48;16.70;1.00
25556;DHT22;13447;57.174;-2.112;2023-06-24T01:53:17;16.70;1.00
25556;DHT22;13447;57.174;-2.112;2023-06-24T01:55:45;16.70;1.00
25556;DHT22;13447;57.174;-2.112;2023-06-24T01:58:12;16.80;1.00
25556;DHT22;13447;57.174;-2.112;2023-06-24T02:00:40;16.80;1.00
25556;DHT22;13447;57.174;-2.112;2023-06-24T02:03:08;16.80;1.00
25556;DHT22;13447;57.174;-2.112;2023-06-24T02:05:36;16.80;1.00
25556;DHT22;13447;57.174;-2.112;2023-06-24T02:08:07;16.90;1.00
25556;DHT22;13447;57.174;-2.112;2023-06-24T02:10:38;16.80;1.00
25556;DHT22;13447;57.174;-2.112;2023-06-24T02:13:05;16.90;1.00
25556;DHT22;13447;57.174;-2.112;2023-06-24T02:15:34;16.90;1.00
25556;DHT22;13447;57.174;-2.112;2023-06-24T02:18:02;16.90;1.00
25556;DHT22;13447;57.174;-2.112;2023-06-24T02:20:30;16.90;1.00
25556;DHT22;13447;57.174;-2.112;2023-06-24T02:22:57;16.90;1.00
25556;DHT22;13447;57.174;-2.112;2023-06-24T02:25:25;16.90;1.00
25556;DHT22;13447;57.174;-2.112;2023-06-24T02:27:53;17.00;1.00
25556;DHT22;13447;57.174;-2.112;2023-06-24T02:30:21;16.90;1.00
25556;DHT22;13447;57.174;-2.112;2023-06-24T02:32:48;16.90;1.00
25556;DHT22;13447;57.174;-2.112;2023-06-24T02:35:15;16.90;1.00
25556;DHT22;13447;57.174;-2.112;2023-06-24T02:37:41;16.90;1.00
25556;DHT22;13447;57.174;-2.112;2023-06-24T02:40:08;16.90;1.00
25556;DHT22;13447;57.174;-2.112;2023-06-24T02:42:36;16.90;1.00
25556;DHT22;13447;57.174;-2.112;2023-06-24T02:45:03;16.90;1.00
25556;DHT22;13447;57.174;-2.112;2023-06-24T02:47:32;16.90;1.00
25556;DHT22;13447;57.174;-2.112;2023-06-24T02:50:00;16.90;1.00
25556;DHT22;13447;57.174;-2.112;2023-06-24T02:52:27;17.00;1.00
25556;DHT22;13447;57.174;-2.112;2023-06-24T02:54:58;17.00;1.00
25556;DHT22;13447;57.174;-2.112;2023-06-24T02:57:25;16.90;1.00
25556;DHT22;13447;57.174;-2.112;2023-06-24T02:59:52;16.90;1.00
25556;DHT22;13447;57.174;-2.112;2023-06-24T03:02:19;16.90;1.00
25556;DHT22;13447;57.174;-2.112;2023-06-24T03:04:46;16.90;1.00
25556;DHT22;13447;57.174;-2.112;2023-06-24T03:07:13;16.90;1.00
25556;DHT22;13447;57.174;-2.112;2023-06-24T03:09:40;16.90;1.00
25556;DHT22;13447;57.174;-2.112;2023-06-24T03:12:07;16.90;1.00
25556;DHT22;13447;57.174;-2.112;2023-06-24T03:14:34;16.90;1.00
25556;DHT22;13447;57.174;-2.112;2023-06-24T03:17:01;16.90;1.00
25556;DHT22;13447;57.174;-2.112;2023-06-24T03:19:27;16.90;1.00
25556;DHT22;13447;57.174;-2.112;2023-06-24T03:21:54;17.00;1.00
25556;DHT22;13447;57.174;-2.112;2023-06-24T03:24:21;17.00;1.00
25556;DHT22;13447;57.174;-2.112;2023-06-24T03:26:48;17.00;1.00
25556;DHT22;13447;57.174;-2.112;2023-06-24T03:29:17;17.00;1.00
25556;DHT22;13447;57.174;-2.112;2023-06-24T03:31:44;17.00;1.00
25556;DHT22;13447;57.174;-2.112;2023-06-24T03:34:12;17.00;1.00
25556;DHT22;13447;57.174;-2.112;2023-06-24T03:36:40;17.00;1.00
25556;DHT22;13447;57.174;-2.112;2023-06-24T03:39:06;16.90;1.00
25556;DHT22;13447;57.174;-2.112;2023-06-24T03:41:33;16.90;1.00
25556;DHT22;13447;57.174;-2.112;2023-06-24T03:44:00;16.80;1.00
25556;DHT22;13447;57.174;-2.112;2023-06-24T03:46:27;16.80;1.00
25556;DHT22;13447;57.174;-2.112;2023-06-24T03:48:59;16.80;1.00
25556;DHT22;13447;57.174;-2.112;2023-06-24T03:51:27;16.80;1.00
25556;DHT22;13447;57.174;-2.112;2023-06-24T03:53:53;16.80;1.00
25556;DHT22;13447;57.174;-2.112;2023-06-24T03:56:20;16.70;1.00
25556;DHT22;13447;57.174;-2.112;2023-06-24T03:58:47;16.80;1.00
25556;DHT22;13447;57.174;-2.112;2023-06-24T04:01:14;16.70;1.00
25556;DHT22;13447;57.174;-2.112;2023-06-24T04:03:41;16.70;1.00
25556;DHT22;13447;57.174;-2.112;2023-06-24T04:06:08;16.70;1.00
25556;DHT22;13447;57.174;-2.112;2023-06-24T04:08:35;16.70;1.00
25556;DHT22;13447;57.174;-2.112;2023-06-24T04:11:05;16.80;1.00
25556;DHT22;13447;57.174;-2.112;2023-06-24T04:13:33;16.80;1.00
25556;DHT22;13447;57.174;-2.112;2023-06-24T04:16:01;16.80;1.00
25556;DHT22;13447;57.174;-2.112;2023-06-24T04:18:28;16.90;1.00
25556;DHT22;13447;57.174;-2.112;2023-06-24T04:20:55;16.90;1.00
25556;DHT22;13447;57.174;-2.112;2023-06-24T04:23:22;16.90;1.00
25556;DHT22;13447;57.174;-2.112;2023-06-24T04:25:48;16.90;1.00
25556;DHT22;13447;57.174;-2.112;2023-06-24T04:28:15;17.00;1.00
25556;DHT22;13447;57.174;-2.112;2023-06-24T04:30:42;17.00;1.00
25556;DHT22;13447;57.174;-2.112;2023-06-24T04:33:09;17.00;1.00
25556;DHT22;13447;57.174;-2.112;2023-06-24T04:35:35;17.10;1.00
25556;DHT22;13447;57.174;-2.112;2023-06-24T04:38:03;17.10;1.00
25556;DHT22;13447;57.174;-2.112;2023-06-24T04:40:30;17.10;1.00
25556;DHT22;13447;57.174;-2.112;2023-06-24T04:42:57;17.30;1.00
25556;DHT22;13447;57.174;-2.112;2023-06-24T04:45:24;17.30;1.00
25556;DHT22;13447;57.174;-2.112;2023-06-24T04:47:51;17.30;1.00
25556;DHT22;13447;57.174;-2.112;2023-06-24T04:50:18;17.40;1.00
25556;DHT22;13447;57.174;-2.112;2023-06-24T04:52:45;17.50;1.00
25556;DHT22;13447;57.174;-2.112;2023-06-24T04:55:12;17.50;1.00
25556;DHT22;13447;57.174;-2.112;2023-06-24T04:57:39;17.50;1.00
25556;DHT22;13447;57.174;-2.112;2023-06-24T05:00:06;17.60;1.00
25556;DHT22;13447;57.174;-2.112;2023-06-24T05:02:33;17.60;1.00
25556;DHT22;13447;57.174;-2.112;2023-06-24T05:05:00;17.60;1.00
25556;DHT22;13447;57.174;-2.112;2023-06-24T05:07:27;17.70;1.00
25556;DHT22;13447;57.174;-2.112;2023-06-24T05:09:53;17.80;1.00
25556;DHT22;13447;57.174;-2.112;2023-06-24T05:12:20;17.90;1.00
25556;DHT22;13447;57.174;-2.112;2023-06-24T05:14:50;18.00;1.00
25556;DHT22;13447;57.174;-2.112;2023-06-24T05:17:19;18.10;1.00
25556;DHT22;13447;57.174;-2.112;2023-06-24T05:19:46;18.10;1.00
25556;DHT22;13447;57.174;-2.112;2023-06-24T05:22:12;18.10;1.00
25556;DHT22;13447;57.174;-2.112;2023-06-24T05:24:39;18.20;1.00
25556;DHT22;13447;57.174;-2.112;2023-06-24T05:27:07;18.30;1.00
25556;DHT22;13447;57.174;-2.112;2023-06-24T05:29:34;18.40;1.00
25556;DHT22;13447;57.174;-2.112;2023-06-24T05:32:01;18.50;1.00
25556;DHT22;13447;57.174;-2.112;2023-06-24T05:34:30;18.60;1.00
25556;DHT22;13447;57.174;-2.112;2023-06-24T05:36:57;18.80;1.00
25556;DHT22;13447;57.174;-2.112;2023-06-24T05:39:24;18.90;1.00
25556;DHT22;13447;57.174;-2.112;2023-06-24T05:41:51;18.80;1.00
25556;DHT22;13447;57.174;-2.112;2023-06-24T05:44:18;19.00;1.00
25556;DHT22;13447;57.174;-2.112;2023-06-24T05:46:45;19.00;1.00
25556;DHT22;13447;57.174;-2.112;2023-06-24T05:49:12;19.10;1.00
25556;DHT22;13447;57.174;-2.112;2023-06-24T05:51:38;19.30;1.00
25556;DHT22;13447;57.174;-2.112;2023-06-24T05:54:05;19.30;1.00
25556;DHT22;13447;57.174;-2.112;2023-06-24T05:56:34;19.40;1.00
25556;DHT22;13447;57.174;-2.112;2023-06-24T05:59:03;19.30;1.00
25556;DHT22;13447;57.174;-2.112;2023-06-24T06:01:29;19.30;1.00
25556;DHT22;13447;57.174;-2.112;2023-06-24T06:03:56;19.20;1.00
25556;DHT22;13447;57.174;-2.112;2023-06-24T06:06:23;19.30;1.00
25556;DHT22;13447;57.174;-2.112;2023-06-24T06:08:50;19.40;1.00
25556;DHT22;13447;57.174;-2.112;2023-06-24T06:11:17;19.50;1.00
25556;DHT22;13447;57.174;-2.112;2023-06-24T06:13:44;19.70;1.00
25556;DHT22;13447;57.174;-2.112;2023-06-24T06:16:10;19.80;1.00
25556;DHT22;13447;57.174;-2.112;2023-06-24T06:18:37;19.80;1.00
25556;DHT22;13447;57.174;-2.112;2023-06-24T06:21:04;20.00;1.00
25556;DHT22;13447;57.174;-2.112;2023-06-24T06:23:31;20.10;1.00
25556;DHT22;13447;57.174;-2.112;2023-06-24T06:25:58;20.20;1.00
25556;DHT22;13447;57.174;-2.112;2023-06-24T06:28:25;20.30;1.00
25556;DHT22;13447;57.174;-2.112;2023-06-24T06:30:51;20.30;1.00
25556;DHT22;13447;57.174;-2.112;2023-06-24T06:33:18;20.40;1.00
25556;DHT22;13447;57.174;-2.112;2023-06-24T06:35:45;20.50;1.00
25556;DHT22;13447;57.174;-2.112;2023-06-24T06:38:12;20.70;1.00
25556;DHT22;13447;57.174;-2.112;2023-06-24T06:40:39;20.70;99.90
25556;DHT22;13447;57.174;-2.112;2023-06-24T06:43:06;20.80;99.90
25556;DHT22;13447;57.174;-2.112;2023-06-24T06:45:32;20.90;99.90
25556;DHT22;13447;57.174;-2.112;2023-06-24T06:48:01;20.90;99.90
25556;DHT22;13447;57.174;-2.112;2023-06-24T06:50:28;21.00;99.90
25556;DHT22;13447;57.174;-2.112;2023-06-24T06:52:55;21.10;99.90
25556;DHT22;13447;57.174;-2.112;2023-06-24T06:55:22;21.20;99.90
25556;DHT22;13447;57.174;-2.112;2023-06-24T06:57:49;21.30;99.90
25556;DHT22;13447;57.174;-2.112;2023-06-24T07:00:16;21.20;99.90
25556;DHT22;13447;57.174;-2.112;2023-06-24T07:02:43;21.20;99.90
25556;DHT22;13447;57.174;-2.112;2023-06-24T07:05:09;21.30;99.90
25556;DHT22;13447;57.174;-2.112;2023-06-24T07:07:37;21.40;99.90
25556;DHT22;13447;57.174;-2.112;2023-06-24T07:10:08;21.40;99.90
25556;DHT22;13447;57.174;-2.112;2023-06-24T07:12:35;21.50;99.90
25556;DHT22;13447;57.174;-2.112;2023-06-24T07:15:02;21.70;99.90
25556;DHT22;13447;57.174;-2.112;2023-06-24T07:17:29;21.60;99.90
25556;DHT22;13447;57.174;-2.112;2023-06-24T07:19:55;21.60;99.90
25556;DHT22;13447;57.174;-2.112;2023-06-24T07:22:22;21.60;99.90
25556;DHT22;13447;57.174;-2.112;2023-06-24T07:24:49;21.70;99.90
25556;DHT22;13447;57.174;-2.112;2023-06-24T07:27:16;21.80;99.90
25556;DHT22;13447;57.174;-2.112;2023-06-24T07:29:43;21.90;99.90
25556;DHT22;13447;57.174;-2.112;2023-06-24T07:32:10;22.00;99.90
25556;DHT22;13447;57.174;-2.112;2023-06-24T07:34:36;22.10;99.90
25556;DHT22;13447;57.174;-2.112;2023-06-24T07:37:03;22.20;99.90
25556;DHT22;13447;57.174;-2.112;2023-06-24T07:39:44;22.10;99.90
25556;DHT22;13447;57.174;-2.112;2023-06-24T07:42:11;22.20;99.90
25556;DHT22;13447;57.174;-2.112;2023-06-24T07:44:38;22.30;99.90
25556;DHT22;13447;57.174;-2.112;2023-06-24T07:47:06;22.30;99.90
25556;DHT22;13447;57.174;-2.112;2023-06-24T07:49:33;22.50;99.90
25556;DHT22;13447;57.174;-2.112;2023-06-24T07:52:00;22.40;99.90
25556;DHT22;13447;57.174;-2.112;2023-06-24T07:54:26;22.60;99.90
25556;DHT22;13447;57.174;-2.112;2023-06-24T07:56:53;22.70;99.90
25556;DHT22;13447;57.174;-2.112;2023-06-24T07:59:20;22.90;99.90
25556;DHT22;13447;57.174;-2.112;2023-06-24T08:01:47;22.90;99.90
25556;DHT22;13447;57.174;-2.112;2023-06-24T08:04:14;22.90;99.90
25556;DHT22;13447;57.174;-2.112;2023-06-24T08:06:41;23.00;99.90
25556;DHT22;13447;57.174;-2.112;2023-06-24T08:09:08;23.10;99.90
25556;DHT22;13447;57.174;-2.112;2023-06-24T08:11:35;23.10;99.90
25556;DHT22;13447;57.174;-2.112;2023-06-24T08:14:02;23.20;99.90
25556;DHT22;13447;57.174;-2.112;2023-06-24T08:16:30;23.40;99.90
25556;DHT22;13447;57.174;-2.112;2023-06-24T08:18:56;23.50;99.90
25556;DHT22;13447;57.174;-2.112;2023-06-24T08:21:23;23.60;99.90
25556;DHT22;13447;57.174;-2.112;2023-06-24T08:23:50;23.30;99.90
25556;DHT22;13447;57.174;-2.112;2023-06-24T08:26:20;23.00;99.90
25556;DHT22;13447;57.174;-2.112;2023-06-24T08:28:48;23.10;99.90
25556;DHT22;13447;57.174;-2.112;2023-06-24T08:31:14;23.40;99.90
25556;DHT22;13447;57.174;-2.112;2023-06-24T08:33:43;23.60;99.90
25556;DHT22;13447;57.174;-2.112;2023-06-24T08:36:11;23.30;99.90
25556;DHT22;13447;57.174;-2.112;2023-06-24T08:38:37;23.10;99.90
25556;DHT22;13447;57.174;-2.112;2023-06-24T08:41:04;22.80;99.90
25556;DHT22;13447;57.174;-2.112;2023-06-24T08:43:31;22.40;99.90
25556;DHT22;13447;57.174;-2.112;2023-06-24T08:45:58;22.30;99.90
25556;DHT22;13447;57.174;-2.112;2023-06-24T08:48:25;22.30;99.90
25556;DHT22;13447;57.174;-2.112;2023-06-24T08:50:53;22.10;99.90
25556;DHT22;13447;57.174;-2.112;2023-06-24T08:53:22;22.20;99.90
25556;DHT22;13447;57.174;-2.112;2023-06-24T08:55:49;22.20;99.90
25556;DHT22;13447;57.174;-2.112;2023-06-24T08:58:16;22.10;99.90
25556;DHT22;13447;57.174;-2.112;2023-06-24T09:00:43;22.00;99.90
25556;DHT22;13447;57.174;-2.112;2023-06-24T09:03:10;21.90;99.90
25556;DHT22;13447;57.174;-2.112;2023-06-24T09:05:37;22.00;99.90
25556;DHT22;13447;57.174;-2.112;2023-06-24T09:08:04;22.10;99.90
25556;DHT22;13447;57.174;-2.112;2023-06-24T09:10:32;22.20;99.90
25556;DHT22;13447;57.174;-2.112;2023-06-24T09:12:59;22.60;99.90
25556;DHT22;13447;57.174;-2.112;2023-06-24T09:15:30;22.90;99.90
25556;DHT22;13447;57.174;-2.112;2023-06-24T09:17:58;23.10;99.90
25556;DHT22;13447;57.174;-2.112;2023-06-24T09:20:27;23.40;99.90
25556;DHT22;13447;57.174;-2.112;2023-06-24T09:23:03;23.60;99.90
25556;DHT22;13447;57.174;-2.112;2023-06-24T09:25:30;23.80;99.90
25556;DHT22;13447;57.174;-2.112;2023-06-24T09:28:00;23.80;99.90
25556;DHT22;13447;57.174;-2.112;2023-06-24T09:30:27;24.00;99.90
25556;DHT22;13447;57.174;-2.112;2023-06-24T09:32:54;24.30;99.90
25556;DHT22;13447;57.174;-2.112;2023-06-24T09:35:25;24.20;72.10
25556;DHT22;13447;57.174;-2.112;2023-06-24T09:37:55;24.10;93.70
25556;DHT22;13447;57.174;-2.112;2023-06-24T09:40:23;24.00;88.40
25556;DHT22;13447;57.174;-2.112;2023-06-24T09:42:56;24.00;99.90
25556;DHT22;13447;57.174;-2.112;2023-06-24T09:45:27;24.30;94.20
25556;DHT22;13447;57.174;-2.112;2023-06-24T09:47:55;24.50;41.40
25556;DHT22;13447;57.174;-2.112;2023-06-24T09:50:22;24.70;25.80
25556;DHT22;13447;57.174;-2.112;2023-06-24T09:52:49;24.60;21.20
25556;DHT22;13447;57.174;-2.112;2023-06-24T09:55:17;24.70;23.10
25556;DHT22;13447;57.174;-2.112;2023-06-24T09:57:47;24.80;7.20
25556;DHT22;13447;57.174;-2.112;2023-06-24T10:00:18;25.20;1.00
25556;DHT22;13447;57.174;-2.112;2023-06-24T10:02:45;25.60;1.00
25556;DHT22;13447;57.174;-2.112;2023-06-24T10:05:13;25.30;1.00
25556;DHT22;13447;57.174;-2.112;2023-06-24T10:07:40;25.40;1.00
25556;DHT22;13447;57.174;-2.112;2023-06-24T10:10:08;25.70;1.00
25556;DHT22;13447;57.174;-2.112;2023-06-24T10:12:36;25.50;1.00
25556;DHT22;13447;57.174;-2.112;2023-06-24T10:15:03;25.90;1.00
25556;DHT22;13447;57.174;-2.112;2023-06-24T10:17:30;26.20;1.00
25556;DHT22;13447;57.174;-2.112;2023-06-24T10:19:57;25.70;1.00
25556;DHT22;13447;57.174;-2.112;2023-06-24T10:22:24;26.10;1.00
25556;DHT22;13447;57.174;-2.112;2023-06-24T10:24:52;26.00;1.00
25556;DHT22;13447;57.174;-2.112;2023-06-24T10:27:20;25.50;1.00
25556;DHT22;13447;57.174;-2.112;2023-06-24T10:29:51;25.50;1.00
25556;DHT22;13447;57.174;-2.112;2023-06-24T10:32:18;25.90;1.00
25556;DHT22;13447;57.174;-2.112;2023-06-24T10:34:46;26.50;1.00
25556;DHT22;13447;57.174;-2.112;2023-06-24T10:40:13;27.60;1.00
25556;DHT22;13447;57.174;-2.112;2023-06-24T10:47:36;28.00;1.00
25556;DHT22;13447;57.174;-2.112;2023-06-24T10:50:03;28.20;1.00
25556;DHT22;13447;57.174;-2.112;2023-06-24T10:52:30;28.00;99.90
25556;DHT22;13447;57.174;-2.112;2023-06-24T10:54:57;27.50;1.00
25556;DHT22;13447;57.174;-2.112;2023-06-24T10:57:25;27.70;99.90
25556;DHT22;13447;57.174;-2.112;2023-06-24T10:59:55;27.40;99.90
25556;DHT22;13447;57.174;-2.112;2023-06-24T11:02:26;27.60;1.00
25556;DHT22;13447;57.174;-2.112;2023-06-24T11:07:20;27.70;99.90
25556;DHT22;13447;57.174;-2.112;2023-06-24T11:09:48;27.50;99.90
25556;DHT22;13447;57.174;-2.112;2023-06-24T11:12:16;27.70;99.90
25556;DHT22;13447;57.174;-2.112;2023-06-24T11:14:44;28.00;99.90
25556;DHT22;13447;57.174;-2.112;2023-06-24T11:17:11;27.70;99.90
25556;DHT22;13447;57.174;-2.112;2023-06-24T11:19:38;27.60;99.90
25556;DHT22;13447;57.174;-2.112;2023-06-24T11:22:07;27.70;99.90
25556;DHT22;13447;57.174;-2.112;2023-06-24T11:24:34;27.50;99.90
25556;DHT22;13447;57.174;-2.112;2023-06-24T11:27:03;27.60;99.90
25556;DHT22;13447;57.174;-2.112;2023-06-24T11:29:30;28.10;1.00
25556;DHT22;13447;57.174;-2.112;2023-06-24T11:31:58;28.20;99.90
25556;DHT22;13447;57.174;-2.112;2023-06-24T11:34:24;28.00;99.90
25556;DHT22;13447;57.174;-2.112;2023-06-24T11:36:51;27.50;99.90
25556;DHT22;13447;57.174;-2.112;2023-06-24T11:39:25;27.30;99.90
25556;DHT22;13447;57.174;-2.112;2023-06-24T11:41:52;27.00;99.90
25556;DHT22;13447;57.174;-2.112;2023-06-24T11:44:19;27.40;99.90
25556;DHT22;13447;57.174;-2.112;2023-06-24T11:46:47;27.50;99.90
25556;DHT22;13447;57.174;-2.112;2023-06-24T11:49:14;27.40;99.90
25556;DHT22;13447;57.174;-2.112;2023-06-24T11:51:50;27.00;99.90
25556;DHT22;13447;57.174;-2.112;2023-06-24T11:54:18;26.60;99.90
25556;DHT22;13447;57.174;-2.112;2023-06-24T11:56:51;26.30;1.00
25556;DHT22;13447;57.174;-2.112;2023-06-24T11:59:19;26.10;1.00
25556;DHT22;13447;57.174;-2.112;2023-06-24T12:01:57;25.90;1.00
25556;DHT22;13447;57.174;-2.112;2023-06-24T12:04:27;25.90;1.00
25556;DHT22;13447;57.174;-2.112;2023-06-24T12:06:55;26.50;1.00
25556;DHT22;13447;57.174;-2.112;2023-06-24T12:09:22;27.50;1.00
25556;DHT22;13447;57.174;-2.112;2023-06-24T12:11:48;27.80;99.90
25556;DHT22;13447;57.174;-2.112;2023-06-24T12:14:15;28.30;99.90
25556;DHT22;13447;57.174;-2.112;2023-06-24T12:16:42;29.00;99.90
25556;DHT22;13447;57.174;-2.112;2023-06-24T12:19:09;29.70;99.90
25556;DHT22;13447;57.174;-2.112;2023-06-24T12:21:36;30.30;99.90
25556;DHT22;13447;57.174;-2.112;2023-06-24T12:24:03;30.50;99.90
25556;DHT22;13447;57.174;-2.112;2023-06-24T12:26:30;31.00;99.90
25556;DHT22;13447;57.174;-2.112;2023-06-24T12:28:57;30.90;99.90
25556;DHT22;13447;57.174;-2.112;2023-06-24T12:31:24;30.30;99.90
25556;DHT22;13447;57.174;-2.112;2023-06-24T12:33:51;30.30;99.90
25556;DHT22;13447;57.174;-2.112;2023-06-24T12:36:19;29.80;99.90
25556;DHT22;13447;57.174;-2.112;2023-06-24T12:38:46;29.60;99.90
25556;DHT22;13447;57.174;-2.112;2023-06-24T12:41:12;29.90;99.90
25556;DHT22;13447;57.174;-2.112;2023-06-24T12:43:39;30.00;99.90
25556;DHT22;13447;57.174;-2.112;2023-06-24T12:46:06;30.50;99.90
25556;DHT22;13447;57.174;-2.112;2023-06-24T12:48:33;30.40;99.90
25556;DHT22;13447;57.174;-2.112;2023-06-24T12:51:00;30.50;99.90
25556;DHT22;13447;57.174;-2.112;2023-06-24T12:53:27;30.50;99.90
25556;DHT22;13447;57.174;-2.112;2023-06-24T12:55:53;30.80;99.90
25556;DHT22;13447;57.174;-2.112;2023-06-24T12:58:22;30.80;99.90
25556;DHT22;13447;57.174;-2.112;2023-06-24T13:00:49;31.30;99.90
25556;DHT22;13447;57.174;-2.112;2023-06-24T13:03:16;31.30;99.90
25556;DHT22;13447;57.174;-2.112;2023-06-24T13:05:43;31.70;99.90
25556;DHT22;13447;57.174;-2.112;2023-06-24T13:08:09;31.70;99.90
25556;DHT22;13447;57.174;-2.112;2023-06-24T13:10:37;31.60;99.90
25556;DHT22;13447;57.174;-2.112;2023-06-24T13:13:07;31.30;99.90
25556;DHT22;13447;57.174;-2.112;2023-06-24T13:15:34;31.30;99.90
25556;DHT22;13447;57.174;-2.112;2023-06-24T13:18:01;31.90;99.90
25556;DHT22;13447;57.174;-2.112;2023-06-24T13:20:28;30.80;99.90
25556;DHT22;13447;57.174;-2.112;2023-06-24T13:22:55;30.20;99.90
25556;DHT22;13447;57.174;-2.112;2023-06-24T13:25:22;29.90;99.90
25556;DHT22;13447;57.174;-2.112;2023-06-24T13:27:48;30.10;99.90
25556;DHT22;13447;57.174;-2.112;2023-06-24T13:30:15;30.40;99.90
25556;DHT22;13447;57.174;-2.112;2023-06-24T13:32:42;30.00;99.90
25556;DHT22;13447;57.174;-2.112;2023-06-24T13:35:09;30.00;99.90
25556;DHT22;13447;57.174;-2.112;2023-06-24T13:37:36;30.30;99.90
25556;DHT22;13447;57.174;-2.112;2023-06-24T13:40:03;30.30;99.90
25556;DHT22;13447;57.174;-2.112;2023-06-24T13:42:30;30.30;99.90
25556;DHT22;13447;57.174;-2.112;2023-06-24T13:44:56;29.70;99.90
25556;DHT22;13447;57.174;-2.112;2023-06-24T13:47:23;28.80;99.90
25556;DHT22;13447;57.174;-2.112;2023-06-24T13:49:50;28.80;99.90
25556;DHT22;13447;57.174;-2.112;2023-06-24T13:52:17;28.30;99.90
25556;DHT22;13447;57.174;-2.112;2023-06-24T13:54:44;27.90;99.90
25556;DHT22;13447;57.174;-2.112;2023-06-24T13:57:12;28.10;99.90
25556;DHT22;13447;57.174;-2.112;2023-06-24T13:59:39;28.20;99.90
25556;DHT22;13447;57.174;-2.112;2023-06-24T14:02:05;27.80;99.90
25556;DHT22;13447;57.174;-2.112;2023-06-24T14:04:34;27.70;99.90
25556;DHT22;13447;57.174;-2.112;2023-06-24T14:07:01;28.00;99.90
25556;DHT22;13447;57.174;-2.112;2023-06-24T14:09:29;27.80;99.90
25556;DHT22;13447;57.174;-2.112;2023-06-24T14:11:56;27.70;99.90
25556;DHT22;13447;57.174;-2.112;2023-06-24T14:14:22;27.50;99.90
25556;DHT22;13447;57.174;-2.112;2023-06-24T14:16:50;27.40;99.90
25556;DHT22;13447;57.174;-2.112;2023-06-24T14:19:16;27.30;99.90
25556;DHT22;13447;57.174;-2.112;2023-06-24T14:21:44;27.10;99.90
25556;DHT22;13447;57.174;-2.112;2023-06-24T14:24:11;27.00;99.90
25556;DHT22;13447;57.174;-2.112;2023-06-24T14:26:42;27.00;99.90
25556;DHT22;13447;57.174;-2.112;2023-06-24T14:29:09;26.80;99.90
25556;DHT22;13447;57.174;-2.112;2023-06-24T14:31:36;26.60;99.90
25556;DHT22;13447;57.174;-2.112;2023-06-24T14:34:02;26.40;99.90
25556;DHT22;13447;57.174;-2.112;2023-06-24T14:36:29;26.30;99.90
25556;DHT22;13447;57.174;-2.112;2023-06-24T14:38:56;26.50;99.90
25556;DHT22;13447;57.174;-2.112;2023-06-24T14:41:23;26.50;99.90
25556;DHT22;13447;57.174;-2.112;2023-06-24T14:43:50;26.50;99.90
25556;DHT22;13447;57.174;-2.112;2023-06-24T14:46:17;27.00;99.90
25556;DHT22;13447;57.174;-2.112;2023-06-24T14:48:44;27.50;99.90
25556;DHT22;13447;57.174;-2.112;2023-06-24T14:51:11;27.70;99.90
25556;DHT22;13447;57.174;-2.112;2023-06-24T14:53:38;27.70;99.90
25556;DHT22;13447;57.174;-2.112;2023-06-24T14:56:05;27.90;99.90
25556;DHT22;13447;57.174;-2.112;2023-06-24T14:58:32;27.80;99.90
25556;DHT22;13447;57.174;-2.112;2023-06-24T15:00:59;27.70;99.90
25556;DHT22;13447;57.174;-2.112;2023-06-24T15:03:25;27.70;99.90
25556;DHT22;13447;57.174;-2.112;2023-06-24T15:05:52;27.80;99.90
25556;DHT22;13447;57.174;-2.112;2023-06-24T15:08:19;27.60;99.90
25556;DHT22;13447;57.174;-2.112;2023-06-24T15:10:46;27.40;99.90
25556;DHT22;13447;57.174;-2.112;2023-06-24T15:13:16;27.40;99.90
25556;DHT22;13447;57.174;-2.112;2023-06-24T15:15:43;27.40;99.90
25556;DHT22;13447;57.174;-2.112;2023-06-24T15:18:10;27.40;99.90
25556;DHT22;13447;57.174;-2.112;2023-06-24T15:20:37;27.40;99.90
25556;DHT22;13447;57.174;-2.112;2023-06-24T15:23:04;27.50;99.90
25556;DHT22;13447;57.174;-2.112;2023-06-24T15:25:31;27.20;99.90
25556;DHT22;13447;57.174;-2.112;2023-06-24T15:27:57;27.20;99.90
25556;DHT22;13447;57.174;-2.112;2023-06-24T15:30:25;27.30;99.90
25556;DHT22;13447;57.174;-2.112;2023-06-24T15:32:53;27.10;99.90
25556;DHT22;13447;57.174;-2.112;2023-06-24T15:35:20;27.30;99.90
25556;DHT22;13447;57.174;-2.112;2023-06-24T15:37:46;27.40;99.90
25556;DHT22;13447;57.174;-2.112;2023-06-24T15:40:13;27.10;99.90
25556;DHT22;13447;57.174;-2.112;2023-06-24T15:42:40;27.20;99.90
25556;DHT22;13447;57.174;-2.112;2023-06-24T15:45:07;27.30;99.90
25556;DHT22;13447;57.174;-2.112;2023-06-24T15:47:34;27.40;99.90